createdAt,value
2022-09-23T00:01:15.935Z,70.31
2022-09-23T00:03:47.387Z,70.04
2022-09-23T00:06:22.802Z,69.38
2022-09-23T00:08:50.475Z,69.41
2022-09-23T00:11:20.395Z,69.26
2022-09-23T00:13:49.500Z,69.01
2022-09-23T00:16:20.655Z,68.73
2022-09-23T00:18:49.540Z,69.49
2022-09-23T00:21:18.067Z,68.95
2022-09-23T00:23:45.053Z,69.21
2022-09-23T00:26:15.907Z,69.33
2022-09-23T00:28:43.708Z,70.62
2022-09-23T00:31:19.273Z,68.06
2022-09-23T00:33:47.021Z,66.59
2022-09-23T00:36:16.574Z,67.11
2022-09-23T00:38:45.276Z,69.25
2022-09-23T00:41:15.719Z,69.67
2022-09-23T00:43:44.342Z,71.11
2022-09-23T00:46:20.641Z,70.06
2022-09-23T00:48:50.271Z,69.83
2022-09-23T00:51:23.482Z,68.93
2022-09-23T00:53:51.798Z,68.61
2022-09-23T00:56:21.765Z,68.29
2022-09-23T00:58:50.584Z,69.64
2022-09-23T01:01:19.365Z,68.99
2022-09-23T01:03:46.886Z,69.17
2022-09-23T01:06:14.244Z,69.26
2022-09-23T01:08:44.252Z,67.64
2022-09-23T01:11:33.889Z,66.60
2022-09-23T01:14:06.863Z,66.57
2022-09-23T01:17:09.427Z,68.86
2022-09-23T01:19:58.209Z,68.60
2022-09-23T01:22:28.180Z,68.86
2022-09-23T01:25:08.575Z,69.39
2022-09-23T01:28:09.651Z,68.25
2022-09-23T01:30:48.911Z,67.15
2022-09-23T01:33:44.025Z,66.91
2022-09-23T01:36:33.901Z,66.27
2022-09-23T01:39:16.987Z,65.26
2022-09-23T01:42:07.258Z,66.23
2022-09-23T01:44:43.172Z,66.16
2022-09-23T01:47:35.627Z,64.23
2022-09-23T01:50:28.448Z,64.69
2022-09-23T01:52:58.320Z,65.93
2022-09-23T01:55:31.115Z,65.90
2022-09-23T01:58:07.479Z,66.44
2022-09-23T02:00:43.868Z,68.03
2022-09-23T02:03:26.990Z,66.90
2022-09-23T02:06:04.608Z,65.94
2022-09-23T02:09:02.853Z,65.29
2022-09-23T02:11:36.413Z,68.16
2022-09-23T02:14:11.140Z,68.16
2022-09-23T02:16:47.673Z,68.57
2022-09-23T02:19:40.355Z,69.70
2022-09-23T02:22:13.074Z,69.24
2022-09-23T02:24:40.225Z,69.68
2022-09-23T02:27:44.510Z,71.73
2022-09-23T02:30:11.426Z,72.06
2022-09-23T02:33:04.323Z,71.28
2022-09-23T02:35:49.112Z,70.44
2022-09-23T02:38:15.923Z,69.48
2022-09-23T02:41:04.819Z,69.16
2022-09-23T02:43:40.174Z,73.53
2022-09-23T02:46:07.561Z,73.78
2022-09-23T02:48:41.423Z,72.20
2022-09-23T02:51:10.074Z,70.85
2022-09-23T02:53:38.283Z,69.75
2022-09-23T02:56:20.310Z,68.53
2022-09-23T02:58:49.416Z,69.47
2022-09-23T03:01:50.258Z,69.00
2022-09-23T03:04:31.771Z,69.31
2022-09-23T03:07:16.878Z,68.53
2022-09-23T03:09:58.631Z,67.26
2022-09-23T03:12:38.447Z,66.50
2022-09-23T03:15:33.681Z,67.25
2022-09-23T03:18:18.214Z,67.14
2022-09-23T03:20:49.586Z,67.66
2022-09-23T03:23:25.344Z,67.35
2022-09-23T03:25:55.858Z,68.23
2022-09-23T03:28:25.606Z,69.26
2022-09-23T03:30:54.679Z,69.44
2022-09-23T03:33:28.658Z,69.11
2022-09-23T03:36:24.816Z,68.41
2022-09-23T03:38:59.358Z,71.02
2022-09-23T03:41:34.330Z,70.07
2022-09-23T03:44:02.385Z,69.86
2022-09-23T03:46:30.319Z,69.19
2022-09-23T03:49:02.835Z,70.04
2022-09-23T03:51:29.744Z,71.24
2022-09-23T03:53:56.596Z,72.08
2022-09-23T03:56:23.665Z,72.12
2022-09-23T03:58:50.615Z,72.21
2022-09-23T04:01:17.583Z,71.43
2022-09-23T04:03:44.558Z,72.70
2022-09-23T04:06:11.526Z,73.49
2022-09-23T04:08:38.419Z,72.72
2022-09-23T04:11:05.554Z,73.50
2022-09-23T04:13:32.594Z,72.69
2022-09-23T04:15:59.790Z,72.18
2022-09-23T04:18:26.970Z,72.52
2022-09-23T04:20:59.057Z,71.06
2022-09-23T04:23:26.871Z,73.47
2022-09-23T04:25:54.117Z,76.85
2022-09-23T04:28:21.571Z,77.40
2022-09-23T04:30:49.200Z,79.03
2022-09-23T04:33:17.003Z,80.26
2022-09-23T04:35:44.112Z,80.89
2022-09-23T04:38:12.765Z,80.97
2022-09-23T04:40:40.061Z,81.48
2022-09-23T04:43:10.553Z,81.29
2022-09-23T04:45:39.783Z,81.33
2022-09-23T04:48:06.742Z,81.47
2022-09-23T04:50:34.314Z,78.50
2022-09-23T04:53:01.974Z,73.29
2022-09-23T04:55:29.218Z,69.89
2022-09-23T04:57:56.134Z,67.63
2022-09-23T05:00:26.695Z,65.98
2022-09-23T05:02:53.542Z,62.09
2022-09-23T05:05:21.227Z,59.87
2022-09-23T05:07:48.647Z,60.26
2022-09-23T05:10:15.997Z,58.17
2022-09-23T05:12:42.991Z,55.76
2022-09-23T05:15:10.231Z,52.26
2022-09-23T05:17:37.536Z,44.97
2022-09-23T05:20:05.107Z,39.29
2022-09-23T05:22:32.008Z,35.73
2022-09-23T05:25:00.384Z,32.39
2022-09-23T05:27:27.499Z,31.17
2022-09-23T05:29:54.378Z,31.52
2022-09-23T05:32:21.955Z,31.60
2022-09-23T05:34:48.890Z,31.37
2022-09-23T05:37:15.854Z,33.11
2022-09-23T05:39:42.730Z,31.23
2022-09-23T05:42:10.237Z,30.48
2022-09-23T05:44:37.183Z,31.06
2022-09-23T05:47:04.278Z,34.75
2022-09-23T05:49:55.133Z,34.05
2022-09-23T05:52:18.036Z,35.92
2022-09-23T05:54:44.890Z,39.66
2022-09-23T05:57:12.015Z,42.53
2022-09-23T05:59:39.255Z,45.88
2022-09-23T06:02:06.595Z,48.26
2022-09-23T06:04:33.719Z,48.67
2022-09-23T06:07:03.471Z,50.93
2022-09-23T06:09:35.594Z,51.20
2022-09-23T06:12:04.841Z,52.95
2022-09-23T06:14:31.858Z,52.36
2022-09-23T06:16:58.885Z,53.83
2022-09-23T06:19:25.782Z,53.39
2022-09-23T06:21:52.923Z,51.67
2022-09-23T06:24:22.271Z,52.84
2022-09-23T06:26:51.767Z,53.75
2022-09-23T06:29:18.661Z,52.25
2022-09-23T06:31:45.657Z,48.87
2022-09-23T06:34:14.623Z,47.21
2022-09-23T06:36:45.560Z,47.72
2022-09-23T06:39:16.228Z,50.43
2022-09-23T06:41:45.341Z,51.24
2022-09-23T06:44:14.092Z,51.52
2022-09-23T06:46:41.168Z,51.21
2022-09-23T06:49:08.153Z,49.10
2022-09-23T06:51:35.126Z,48.67
2022-09-23T06:54:02.117Z,46.82
2022-09-23T06:56:32.405Z,44.63
2022-09-23T06:59:01.862Z,43.25
2022-09-23T07:01:28.903Z,42.26
2022-09-23T07:03:55.829Z,39.81
2022-09-23T07:06:22.670Z,39.65
2022-09-23T07:08:51.277Z,39.16
2022-09-23T07:11:22.616Z,37.54
2022-09-23T07:13:49.763Z,35.61
2022-09-23T07:16:16.737Z,36.45
2022-09-23T07:18:45.164Z,37.44
2022-09-23T07:21:15.587Z,35.54
2022-09-23T07:23:47.657Z,34.73
2022-09-23T07:26:19.450Z,34.68
2022-09-23T07:28:46.671Z,33.16
2022-09-23T07:31:23.379Z,32.44
2022-09-23T07:34:01.336Z,30.92
2022-09-23T07:36:32.809Z,28.73
2022-09-23T07:39:03.616Z,27.66
2022-09-23T07:41:32.648Z,29.64
2022-09-23T07:44:00.680Z,31.15
2022-09-23T07:46:31.017Z,30.36
2022-09-23T07:48:58.006Z,31.40
2022-09-23T07:51:36.399Z,30.26
2022-09-23T07:54:08.881Z,30.15
2022-09-23T07:56:37.493Z,30.38
2022-09-23T07:59:05.885Z,30.25
2022-09-23T08:01:35.710Z,29.72
2022-09-23T08:04:09.131Z,32.46
2022-09-23T08:06:36.916Z,32.65
2022-09-23T08:09:04.378Z,32.67
2022-09-23T08:11:33.002Z,31.90
2022-09-23T08:14:00.043Z,30.84
2022-09-23T08:16:27.292Z,30.65
2022-09-23T08:18:54.302Z,29.25
2022-09-23T08:21:22.219Z,26.35
2022-09-23T08:23:50.018Z,26.18
2022-09-23T08:26:21.756Z,29.22
2022-09-23T08:28:49.785Z,32.76
2022-09-23T08:31:16.862Z,33.39
2022-09-23T08:33:43.895Z,32.65
2022-09-23T08:36:10.753Z,32.22
2022-09-23T08:38:37.648Z,30.08
2022-09-23T08:41:37.590Z,26.82
2022-09-23T08:44:13.225Z,26.83
2022-09-23T08:46:46.748Z,25.82
2022-09-23T08:49:23.612Z,25.82
2022-09-23T08:51:54.907Z,25.97
2022-09-23T08:54:22.066Z,26.62
2022-09-23T08:56:52.404Z,27.79
2022-09-23T08:59:30.718Z,25.96
2022-09-23T09:02:01.489Z,25.38
2022-09-23T09:04:44.610Z,25.42
2022-09-23T09:10:06.348Z,26.76
2022-09-23T09:12:49.947Z,26.49
2022-09-23T09:15:24.325Z,25.65
2022-09-23T09:18:04.189Z,25.29
2022-09-23T09:20:59.592Z,24.75
2022-09-23T09:23:56.910Z,22.90
2022-09-23T09:26:31.106Z,23.86
2022-09-23T09:29:30.836Z,23.41
2022-09-23T09:31:57.721Z,23.21
2022-09-23T09:34:29.561Z,24.57
2022-09-23T09:37:14.825Z,25.82
2022-09-23T09:39:41.670Z,29.85
2022-09-23T09:42:20.317Z,31.59
2022-09-23T09:44:54.314Z,28.63
2022-09-23T09:47:48.653Z,27.71
2022-09-23T09:50:22.179Z,24.72
2022-09-23T09:52:49.173Z,25.05
2022-09-23T09:55:28.153Z,25.71
2022-09-23T09:58:05.285Z,26.88
2022-09-23T10:00:42.970Z,28.52
2022-09-23T10:03:13.397Z,28.88
2022-09-23T10:05:46.162Z,30.42
2022-09-23T10:08:28.328Z,32.73
2022-09-23T10:11:18.059Z,31.00
2022-09-23T10:14:12.737Z,31.24
2022-09-23T10:16:42.200Z,31.32
2022-09-23T10:19:22.915Z,31.41
2022-09-23T10:21:56.922Z,31.03
2022-09-23T10:24:33.078Z,31.74
2022-09-23T10:27:04.461Z,31.28
2022-09-23T10:29:50.943Z,30.05
2022-09-23T10:32:30.200Z,27.46
2022-09-23T10:35:13.729Z,24.27
2022-09-23T10:37:46.662Z,22.45
2022-09-23T10:40:44.782Z,22.62
2022-09-23T10:43:30.256Z,20.85
2022-09-23T10:46:22.021Z,22.75
2022-09-23T10:48:51.790Z,23.67
2022-09-23T10:51:33.362Z,26.26
2022-09-23T10:54:28.135Z,28.39
2022-09-23T10:57:01.496Z,28.71
2022-09-23T10:59:36.245Z,28.07
2022-09-23T11:02:40.065Z,27.13
2022-09-23T11:05:18.874Z,25.54
2022-09-23T11:07:51.325Z,25.92
2022-09-23T11:10:35.430Z,27.17
2022-09-23T11:13:26.572Z,27.58
2022-09-23T11:15:59.535Z,28.27
2022-09-23T11:18:58.441Z,33.43
2022-09-23T11:21:49.895Z,35.45
2022-09-23T11:24:28.212Z,38.73
2022-09-23T11:27:26.124Z,39.37
2022-09-23T11:30:02.006Z,40.41
2022-09-23T11:35:45.461Z,40.65
2022-09-23T11:38:42.448Z,40.51
2022-09-23T11:41:20.304Z,41.20
2022-09-23T11:44:09.991Z,42.05
2022-09-23T11:46:45.390Z,43.13
2022-09-23T11:49:27.527Z,44.10
2022-09-23T11:52:08.223Z,45.01
2022-09-23T11:54:42.987Z,45.13
2022-09-23T11:57:24.468Z,49.45
2022-09-23T12:00:00.601Z,51.30
2022-09-23T12:03:05.980Z,60.23
2022-09-23T12:05:48.885Z,66.01
2022-09-23T12:08:39.466Z,70.11
2022-09-23T12:11:29.466Z,70.98
2022-09-23T12:14:23.882Z,68.50
2022-09-23T12:17:01.004Z,72.37
2022-09-23T12:19:31.077Z,68.25
2022-09-23T12:22:09.014Z,65.61
2022-09-23T12:24:57.288Z,68.27
2022-09-23T12:27:30.243Z,59.62
2022-09-23T12:30:02.803Z,46.21
2022-09-23T12:32:31.122Z,46.25
2022-09-23T12:34:58.816Z,48.85
2022-09-23T12:37:30.000Z,49.86
2022-09-23T12:40:01.927Z,54.12
2022-09-23T12:42:31.311Z,53.01
2022-09-23T12:45:35.011Z,53.90
2022-09-23T12:48:25.714Z,54.10
2022-09-23T12:51:04.644Z,54.96
2022-09-23T12:53:34.573Z,56.63
2022-09-23T12:56:16.796Z,58.67
2022-09-23T12:58:43.663Z,59.92
2022-09-23T13:01:20.073Z,61.10
2022-09-23T13:04:09.093Z,62.14
2022-09-23T13:07:06.425Z,65.73
2022-09-23T13:09:41.063Z,67.40
2022-09-23T13:12:24.899Z,66.74
2022-09-23T13:14:55.237Z,68.88
2022-09-23T13:17:33.695Z,68.79
2022-09-23T13:20:35.000Z,69.22
2022-09-23T13:23:20.662Z,70.79
2022-09-23T13:25:48.847Z,70.02
2022-09-23T13:28:34.208Z,68.53
2022-09-23T13:31:07.026Z,72.33
2022-09-23T13:33:46.217Z,68.31
2022-09-23T13:36:16.529Z,69.38
2022-09-23T13:38:46.213Z,68.99
2022-09-23T13:41:28.785Z,69.03
2022-09-23T13:43:59.132Z,67.84
2022-09-23T13:46:43.285Z,64.01
2022-09-23T13:49:34.163Z,64.02
2022-09-23T13:52:02.240Z,64.04
2022-09-23T13:54:38.582Z,62.50
2022-09-23T13:57:05.462Z,61.89
2022-09-23T13:59:53.602Z,61.80
2022-09-23T14:02:20.809Z,57.05
2022-09-23T14:04:47.789Z,53.84
2022-09-23T14:07:16.849Z,55.89
2022-09-23T14:09:48.828Z,55.68
2022-09-23T14:12:21.970Z,52.71
2022-09-23T14:14:51.780Z,52.68
2022-09-23T14:17:22.993Z,52.11
2022-09-23T14:19:51.011Z,52.97
2022-09-23T14:22:29.699Z,52.18
2022-09-23T14:24:57.622Z,53.14
2022-09-23T14:27:30.926Z,57.32
2022-09-23T14:29:59.054Z,55.53
2022-09-23T14:32:28.807Z,55.40
2022-09-23T14:35:04.604Z,55.39
2022-09-23T14:37:58.958Z,55.77
2022-09-23T14:40:31.811Z,53.38
2022-09-23T14:43:16.888Z,51.07
2022-09-23T14:45:51.222Z,54.11
2022-09-23T14:48:24.471Z,53.27
2022-09-23T14:51:02.797Z,52.86
2022-09-23T14:53:43.763Z,55.37
2022-09-23T14:56:22.313Z,53.01
2022-09-23T14:59:00.123Z,48.14
2022-09-23T15:01:33.218Z,51.46
2022-09-23T15:04:15.633Z,52.60
2022-09-23T15:06:51.488Z,53.23
2022-09-23T15:09:25.043Z,51.59
2022-09-23T15:11:54.129Z,53.27
2022-09-23T15:14:37.206Z,53.17
2022-09-23T15:17:13.622Z,50.87
2022-09-23T15:19:40.773Z,52.10
2022-09-23T15:22:10.037Z,54.26
2022-09-23T15:24:36.875Z,52.25
2022-09-23T15:27:11.676Z,53.85
2022-09-23T15:29:38.931Z,53.64
2022-09-23T15:32:08.600Z,54.34
2022-09-23T15:34:36.145Z,53.19
2022-09-23T15:37:03.244Z,56.21
2022-09-23T15:39:36.127Z,57.27
2022-09-23T15:42:03.624Z,57.70
2022-09-23T15:44:30.663Z,56.13
2022-09-23T15:47:01.261Z,55.33
2022-09-23T15:49:34.174Z,55.23
2022-09-23T15:52:02.202Z,56.76
2022-09-23T15:54:30.050Z,59.59
2022-09-23T15:56:56.955Z,56.06
2022-09-23T15:59:24.270Z,57.54
2022-09-23T16:01:52.950Z,58.80
2022-09-23T16:04:19.924Z,57.25
2022-09-23T16:06:48.415Z,57.92
2022-09-23T16:09:15.822Z,58.30
2022-09-23T16:11:46.391Z,58.74
2022-09-23T16:14:15.910Z,59.00
2022-09-23T16:16:45.155Z,63.54
2022-09-23T16:19:12.586Z,62.31
2022-09-23T16:21:41.068Z,61.36
2022-09-23T16:24:18.996Z,64.30
2022-09-23T16:26:47.547Z,62.77
2022-09-23T16:29:14.843Z,62.68
2022-09-23T16:31:41.905Z,61.94
2022-09-23T16:34:08.833Z,64.36
2022-09-23T16:36:42.034Z,63.26
2022-09-23T16:39:12.575Z,62.64
2022-09-23T16:41:40.166Z,62.96
2022-09-23T16:44:08.426Z,66.13
2022-09-23T16:46:35.437Z,64.77
2022-09-23T16:49:02.605Z,67.91
2022-09-23T16:51:38.268Z,66.86
2022-09-23T16:54:13.258Z,67.06
2022-09-23T16:56:44.463Z,66.10
2022-09-23T16:59:13.299Z,64.77
2022-09-23T17:01:58.661Z,65.70
2022-09-23T17:04:25.653Z,64.73
2022-09-23T17:06:53.372Z,66.96
2022-09-23T17:09:30.274Z,65.59
2022-09-23T17:12:27.904Z,64.51
2022-09-23T17:14:54.876Z,66.44
2022-09-23T17:17:22.389Z,66.43
2022-09-23T17:19:49.322Z,67.05
2022-09-23T17:22:16.228Z,67.19
2022-09-23T17:24:43.251Z,66.89
2022-09-23T17:27:10.162Z,65.62
2022-09-23T17:29:37.115Z,68.29
2022-09-23T17:32:05.313Z,70.10
2022-09-23T17:34:33.527Z,69.41
2022-09-23T17:37:00.814Z,68.29
2022-09-23T17:39:27.690Z,68.11
2022-09-23T17:41:57.358Z,68.49
2022-09-23T17:44:24.486Z,68.73
2022-09-23T17:46:52.255Z,68.93
2022-09-23T17:49:19.274Z,70.16
2022-09-23T17:51:46.325Z,69.41
2022-09-23T17:54:15.119Z,70.08
2022-09-23T17:56:42.871Z,69.16
2022-09-23T17:59:12.833Z,69.55
2022-09-23T18:01:39.850Z,70.28
2022-09-23T18:04:07.304Z,69.86
2022-09-23T18:06:37.137Z,69.29
2022-09-23T18:09:06.735Z,68.95
2022-09-23T18:11:37.169Z,69.58
2022-09-23T18:14:07.748Z,69.98
2022-09-23T18:16:36.931Z,71.03
2022-09-23T18:19:04.750Z,71.38
2022-09-23T18:21:38.096Z,70.94
2022-09-23T18:26:52.963Z,72.21
2022-09-23T18:29:20.034Z,72.05
2022-09-23T18:31:49.339Z,72.30
2022-09-23T18:34:17.222Z,73.20
2022-09-23T18:36:44.810Z,73.35
2022-09-23T18:39:12.090Z,73.73
2022-09-23T18:41:39.676Z,73.58
2022-09-23T18:44:06.780Z,74.00
2022-09-23T18:46:33.865Z,75.31
2022-09-23T18:49:19.370Z,75.46
2022-09-23T18:51:57.292Z,75.97
2022-09-23T18:54:26.385Z,75.80
2022-09-23T18:56:53.494Z,75.40
2022-09-23T18:59:23.959Z,74.63
2022-09-23T19:01:51.419Z,74.27
2022-09-23T19:04:20.559Z,74.30
2022-09-23T19:06:48.183Z,74.49
2022-09-23T19:09:16.777Z,74.78
2022-09-23T19:11:44.510Z,74.38
2022-09-23T19:14:12.679Z,74.01
2022-09-23T19:16:40.862Z,73.67
2022-09-23T19:19:08.534Z,72.99
2022-09-23T19:21:36.323Z,72.65
2022-09-23T19:24:07.615Z,71.78
2022-09-23T19:26:37.661Z,71.96
2022-09-23T19:29:08.186Z,71.36
2022-09-23T19:31:40.212Z,70.77
2022-09-23T19:34:23.947Z,70.71
2022-09-23T19:36:51.590Z,70.28
2022-09-23T19:39:23.714Z,69.95
2022-09-23T19:41:52.439Z,68.81
2022-09-23T19:44:20.343Z,68.81
2022-09-23T19:46:55.016Z,68.63
2022-09-23T19:49:24.837Z,68.84
2022-09-23T19:51:55.511Z,68.65
2022-09-23T19:54:23.597Z,68.42
2022-09-23T19:56:50.735Z,67.54
2022-09-23T19:59:19.207Z,68.09
2022-09-23T20:01:47.845Z,69.35
2022-09-23T20:04:15.963Z,69.45
2022-09-23T20:06:43.477Z,70.09
2022-09-23T20:09:10.353Z,72.63
2022-09-23T20:11:37.377Z,74.37
2022-09-23T20:14:06.451Z,74.32
2022-09-23T20:16:36.944Z,74.17
2022-09-23T20:19:05.791Z,73.98
2022-09-23T20:21:33.876Z,75.47
2022-09-23T20:24:01.911Z,75.93
2022-09-23T20:26:47.493Z,73.53
2022-09-23T20:29:14.619Z,73.56
2022-09-23T20:31:41.843Z,75.13
2022-09-23T20:34:10.783Z,77.43
2022-09-23T20:36:40.177Z,77.29
2022-09-23T20:39:07.307Z,77.58
2022-09-23T20:41:37.903Z,78.13
2022-09-23T20:44:12.696Z,77.30
2022-09-23T20:46:48.327Z,76.58
2022-09-23T20:49:17.316Z,76.03
2022-09-23T20:51:44.669Z,76.08
2022-09-23T20:54:12.346Z,75.33
2022-09-23T20:56:39.466Z,75.46
2022-09-23T20:59:06.420Z,75.25
2022-09-23T21:01:35.326Z,75.97
2022-09-23T21:04:05.149Z,76.39
2022-09-23T21:06:34.600Z,76.25
2022-09-23T21:09:01.836Z,75.72
2022-09-23T21:11:29.306Z,75.71
2022-09-23T21:13:56.716Z,74.89
2022-09-23T21:16:24.674Z,74.61
2022-09-23T21:18:52.424Z,74.67
2022-09-23T21:21:22.090Z,74.91
2022-09-23T21:23:50.277Z,74.21
2022-09-23T21:26:25.339Z,71.48
2022-09-23T21:28:55.488Z,70.41
2022-09-23T21:31:26.160Z,72.23
2022-09-23T21:34:04.011Z,72.66
2022-09-23T21:36:34.649Z,71.95
2022-09-23T21:39:05.540Z,69.67
2022-09-23T21:41:32.948Z,69.79
2022-09-23T21:44:00.402Z,72.53
2022-09-23T21:46:28.451Z,75.08
2022-09-23T21:48:58.985Z,75.62
2022-09-23T21:51:28.342Z,75.51
2022-09-23T21:53:57.522Z,74.81
2022-09-23T21:56:33.204Z,73.99
2022-09-23T21:59:00.082Z,71.71
2022-09-23T22:01:36.430Z,72.63
2022-09-23T22:04:13.420Z,73.53
2022-09-23T22:06:40.631Z,74.96
2022-09-23T22:09:11.407Z,76.71
2022-09-23T22:11:57.997Z,78.94
2022-09-23T22:14:26.200Z,76.30
2022-09-23T22:16:57.908Z,77.27
2022-09-23T22:19:28.142Z,77.40
2022-09-23T22:21:56.006Z,77.42
2022-09-23T22:24:23.292Z,78.33
2022-09-23T22:26:50.649Z,77.41
2022-09-23T22:29:37.241Z,77.36
2022-09-23T22:32:29.367Z,77.76
2022-09-23T22:34:56.952Z,78.50
2022-09-23T22:37:30.587Z,77.01
2022-09-23T22:39:57.683Z,77.73
2022-09-23T22:42:25.060Z,78.52
2022-09-23T22:44:52.240Z,77.13
2022-09-23T22:47:20.512Z,75.54
2022-09-23T22:49:48.415Z,75.05
2022-09-23T22:52:21.052Z,75.49
2022-09-23T22:54:48.281Z,75.97
2022-09-23T22:57:15.748Z,77.00
2022-09-23T22:59:48.205Z,75.66
2022-09-23T23:02:19.691Z,74.08
2022-09-23T23:04:47.762Z,74.21
2022-09-23T23:07:21.114Z,76.65
2022-09-23T23:09:50.214Z,79.96
2022-09-23T23:12:20.267Z,79.87
2022-09-23T23:14:48.650Z,80.63
2022-09-23T23:17:15.720Z,81.94
2022-09-23T23:19:42.620Z,82.05
2022-09-23T23:22:09.533Z,80.61
2022-09-23T23:24:36.523Z,80.17
2022-09-23T23:27:03.476Z,80.98
2022-09-23T23:29:30.411Z,82.57
2022-09-23T23:31:57.357Z,83.24
2022-09-23T23:34:24.419Z,83.61
2022-09-23T23:36:57.263Z,84.18
2022-09-23T23:39:25.354Z,84.89
2022-09-23T23:41:56.597Z,84.91
2022-09-23T23:44:25.583Z,84.36
2022-09-23T23:46:54.120Z,84.57
2022-09-23T23:49:21.694Z,84.58
2022-09-23T23:51:48.770Z,84.52
2022-09-23T23:54:15.748Z,83.97
2022-09-23T23:56:43.183Z,85.21
2022-09-23T23:59:10.130Z,84.40
